Have a Safe July 4th! 

Flight Track Log - Related Links

Times and Time Zones

All times are in EDT time to prevent confusion due to time zone crossing. See the CTL18 flight status page for this flight to view local times or setup timezone preferences in your user account.

Time Position Orientation Groundspeed Altitude Reporting Facility
EDT Latitude Longitude Course Direction KTS MPH feet Rate Location/Type
Mon 10:31:33 PM 41.5864 -82.4292 312° West 152 175 4,100  Level Cleveland Center
Mon 10:32:34 PM 41.5814 -82.4847 263° West 149 171 4,100  Level Cleveland Center
Mon 10:33:28 PM 41.5764 -82.5317 262° West 145 167 4,100  Level Cleveland Center
Mon 10:34:29 PM 41.6069 -82.5744 314° West 173 199 4,100  Level Cleveland Center
Mon 10:35:30 PM 41.6528 -82.5869 348° North 166 191 4,100 -62 Level Cleveland Center
Mon 10:36:00 PM 42.0570 -82.4869 312° West  Level Estimated
Mon 10:36:06 PM 41.6858 -82.5961 348° North 171 197 4,000  Level Cleveland Center
Mon 10:36:42 PM 41.7128 -82.5997 354° North 168 193 4,000  Level Cleveland Center
Mon 10:37:43 PM 41.7586 -82.6125 348° North 165 190 4,000  Level Cleveland Center
Mon 10:38:38 PM 41.8022 -82.6139 359° North 169 194 4,000  Level Cleveland Center
Mon 10:39:45 PM 41.8522 -82.6264 349° North 169 194 4,000  Level Cleveland Center
Mon 10:40:51 PM 41.8975 -82.6558 334° Northwest 157 181 4,000  Level Cleveland Center
Mon 10:41:58 PM 41.9406 -82.6853 333° Northwest 160 184 4,000  Level Cleveland Center
Mon 10:42:59 PM 41.9819 -82.7144 332° Northwest 161 185 4,000  Level Cleveland Center
Mon 10:43:53 PM 42.0189 -82.7353 337° Northwest 161 185 4,000  Level Cleveland Center
Mon 10:44:54 PM 42.0561 -82.7617 332° Northwest 159 183 4,000  Level Cleveland Center
Mon 10:45:55 PM 42.0972 -82.7856 337° Northwest 161 185 4,000  Level Cleveland Center
Mon 10:46:49 PM 42.1364 -82.8119 333° Northwest 160 184 4,000  Level Cleveland Center
Mon 10:47:56 PM 42.1775 -82.8442 330° Northwest 160 184 4,000  Level Cleveland Center
Mon 10:48:57 PM 42.2206 -82.8711 335° Northwest 160 184 4,000 -50 Level Cleveland Center
Mon 10:49:57 PM 42.2597 -82.8978 333° Northwest 161 185 3,900 -365 Descending Cleveland Center
Mon 10:50:52 PM 42.2989 -82.9244 333° Northwest 175 201 3,300 -470 Descending Cleveland Center
Mon 10:51:52 PM 42.3419 -82.9569 331° Northwest 174 200 3,000 -149 Descending Cleveland Center
Mon 10:52:53 PM 42.3808 -82.9894 328° Northwest 161 185 3,000  Level Cleveland Center
Mon 10:53:48 PM 42.4158 -83.0161 331° Northwest 161 185 3,000  Level Cleveland Center
Mon 10:54:48 PM 42.4503 -83.0511 323° Northwest 162 186 3,000  Level Cleveland Center
Mon 10:55:49 PM 42.4639 -83.1050 289° West 151 174 3,000  Level Cleveland Center
Mon 10:56:50 PM 42.4833 -83.1594 296° West 152 175 3,000  Level Cleveland Center
Mon 10:57:56 PM 42.5031 -83.2164 295° West 149 171 3,000  Level Cleveland Center
Mon 10:59:03 PM 42.5311 -83.2656 308° West 161 185 3,000 -141 Level Cleveland Center
Mon 11:00:04 PM 42.5636 -83.3036 319° Northwest 164 189 2,700 -397 Descending Cleveland Center
Mon 11:01:04 PM 42.6044 -83.3364 329° Northwest 169 194 2,200 -378 Descending Cleveland Center
Mon 11:02:11 PM 42.6453 -83.3664 332° Northwest 145 167 1,900 -269 Descending Cleveland Center

Login

Don't have an account? Register now (free) for customized features, flight alerts, and more!